createdAt,value
2023-02-24T00:02:05.492Z,93.60
2023-02-24T00:04:36.227Z,93.40
2023-02-24T00:07:03.136Z,93.40
2023-02-24T00:09:31.328Z,93.30
2023-02-24T00:12:02.687Z,93.50
2023-02-24T00:14:32.253Z,93.50
2023-02-24T00:16:59.304Z,93.60
2023-02-24T00:19:29.072Z,93.50
2023-02-24T00:21:55.852Z,93.40
2023-02-24T00:24:23.522Z,93.20
2023-02-24T00:26:55.794Z,93.50
2023-02-24T00:29:26.788Z,93.50
2023-02-24T00:31:59.250Z,93.50
2023-02-24T00:34:31.234Z,93.60
2023-02-24T00:36:58.607Z,93.50
2023-02-24T00:39:33.439Z,93.60
2023-02-24T00:42:05.124Z,93.60
2023-02-24T00:44:45.082Z,93.60
2023-02-24T00:47:13.350Z,93.50
2023-02-24T00:49:43.416Z,93.20
2023-02-24T00:52:20.552Z,93.40
2023-02-24T00:54:49.235Z,93.60
2023-02-24T00:57:21.235Z,93.80
2023-02-24T00:59:48.178Z,94.00
2023-02-24T01:02:15.907Z,94.10
2023-02-24T01:04:44.296Z,94.00
2023-02-24T01:07:12.913Z,94.00
2023-02-24T01:09:41.662Z,93.90
2023-02-24T01:12:22.385Z,94.00
2023-02-24T01:14:52.586Z,94.00
2023-02-24T01:17:21.026Z,93.90
2023-02-24T01:19:49.694Z,93.90
2023-02-24T01:22:20.420Z,93.90
2023-02-24T01:24:48.553Z,94.00
2023-02-24T01:27:19.373Z,93.90
2023-02-24T01:29:47.474Z,93.80
2023-02-24T01:32:17.650Z,93.80
2023-02-24T01:34:45.026Z,93.40
2023-02-24T01:37:16.253Z,93.50
2023-02-24T01:39:44.773Z,93.60
2023-02-24T01:42:16.582Z,93.60
2023-02-24T01:44:47.967Z,93.70
2023-02-24T01:47:20.927Z,93.70
2023-02-24T01:49:52.132Z,93.80
2023-02-24T01:52:34.419Z,94.00
2023-02-24T01:55:07.405Z,93.90
2023-02-24T01:57:38.583Z,93.60
2023-02-24T02:00:19.671Z,93.50
2023-02-24T02:02:50.680Z,94.00
2023-02-24T02:05:18.451Z,94.30
2023-02-24T02:07:45.774Z,94.10
2023-02-24T02:10:13.668Z,94.40
2023-02-24T02:12:44.328Z,94.30
2023-02-24T02:15:15.290Z,94.70
2023-02-24T02:18:07.635Z,94.70
2023-02-24T02:20:55.864Z,95.10
2023-02-24T02:24:04.952Z,94.90
2023-02-24T02:26:53.883Z,94.70
2023-02-24T02:29:51.037Z,94.60
2023-02-24T02:32:31.460Z,94.60
2023-02-24T02:35:19.182Z,94.50
2023-02-24T02:38:00.102Z,94.60
2023-02-24T02:40:38.072Z,94.50
2023-02-24T02:43:19.429Z,94.40
2023-02-24T02:45:51.994Z,94.50
2023-02-24T02:48:27.313Z,94.50
2023-02-24T02:51:04.144Z,94.40
2023-02-24T02:53:39.071Z,94.30
2023-02-24T02:56:37.321Z,94.20
2023-02-24T02:59:06.476Z,93.80
2023-02-24T03:01:37.472Z,94.20
2023-02-24T03:04:09.437Z,94.20
2023-02-24T03:06:48.064Z,94.10
2023-02-24T03:09:24.500Z,94.10
2023-02-24T03:11:59.370Z,94.20
2023-02-24T03:14:33.185Z,94.30
2023-02-24T03:17:04.430Z,94.20
2023-02-24T03:19:37.724Z,94.10
2023-02-24T03:22:13.794Z,94.00
2023-02-24T03:24:42.330Z,94.10
2023-02-24T03:27:13.600Z,94.20
2023-02-24T03:29:50.318Z,94.30
2023-02-24T03:32:27.111Z,94.20
2023-02-24T03:35:04.230Z,94.10
2023-02-24T03:37:33.490Z,94.00
2023-02-24T03:40:11.324Z,93.80
2023-02-24T03:42:42.029Z,94.00
2023-02-24T03:45:09.366Z,94.00
2023-02-24T03:47:36.785Z,94.00
2023-02-24T03:50:13.033Z,94.00
2023-02-24T03:53:04.248Z,93.90
2023-02-24T03:56:15.824Z,93.90
2023-02-24T03:59:12.908Z,94.00
2023-02-24T04:01:55.645Z,94.40
2023-02-24T04:04:33.426Z,94.40
2023-02-24T04:07:19.196Z,94.70
2023-02-24T04:10:15.158Z,94.60
2023-02-24T04:13:02.034Z,94.60
2023-02-24T04:15:37.571Z,94.60
2023-02-24T04:18:13.235Z,94.60
2023-02-24T04:20:41.173Z,94.40
2023-02-24T04:23:13.501Z,94.40
2023-02-24T04:25:43.940Z,94.30
2023-02-24T04:28:12.077Z,94.20
2023-02-24T04:30:43.024Z,94.30
2023-02-24T04:33:10.209Z,94.30
2023-02-24T04:35:37.810Z,94.40
2023-02-24T04:38:05.316Z,94.60
2023-02-24T04:40:32.131Z,94.70
2023-02-24T04:42:58.941Z,94.60
2023-02-24T04:45:28.342Z,94.40
2023-02-24T04:48:03.756Z,94.30
2023-02-24T04:50:36.302Z,94.30
2023-02-24T04:53:07.168Z,94.20
2023-02-24T04:55:39.988Z,94.30
2023-02-24T04:58:11.982Z,94.40
2023-02-24T05:00:41.529Z,94.40
2023-02-24T05:03:11.293Z,94.40
2023-02-24T05:05:38.256Z,94.20
2023-02-24T05:08:07.780Z,94.40
2023-02-24T05:10:45.787Z,94.40
2023-02-24T05:13:26.595Z,94.50
2023-02-24T05:15:56.037Z,94.60
2023-02-24T05:18:23.984Z,94.50
2023-02-24T05:21:15.368Z,94.50
2023-02-24T05:23:44.765Z,94.60
2023-02-24T05:26:16.272Z,95.30
2023-02-24T05:28:44.592Z,95.30
2023-02-24T05:31:17.387Z,95.10
2023-02-24T05:33:46.656Z,95.00
2023-02-24T05:36:17.176Z,94.90
2023-02-24T05:38:45.572Z,94.80
2023-02-24T05:41:17.772Z,94.60
2023-02-24T05:43:52.689Z,94.30
2023-02-24T05:46:29.558Z,94.40
2023-02-24T05:48:57.780Z,94.20
2023-02-24T05:51:25.753Z,94.10
2023-02-24T05:53:56.400Z,94.10
2023-02-24T05:56:23.563Z,93.90
2023-02-24T05:59:01.749Z,93.90
2023-02-24T06:01:34.689Z,94.00
2023-02-24T06:04:06.784Z,94.10
2023-02-24T06:06:38.889Z,94.30
2023-02-24T06:09:12.560Z,94.20
2023-02-24T06:11:45.138Z,94.30
2023-02-24T06:14:12.881Z,94.30
2023-02-24T06:16:41.500Z,94.60
2023-02-24T06:19:09.905Z,94.60
2023-02-24T06:21:41.112Z,94.60
2023-02-24T06:24:15.440Z,94.50
2023-02-24T06:26:45.858Z,94.50
2023-02-24T06:29:14.851Z,94.60
2023-02-24T06:31:42.968Z,94.60
2023-02-24T06:34:18.301Z,94.80
2023-02-24T06:36:46.869Z,94.90
2023-02-24T06:39:14.567Z,94.80
2023-02-24T06:41:42.575Z,94.90
2023-02-24T06:44:09.561Z,94.90
2023-02-24T06:46:37.204Z,94.90
2023-02-24T06:49:04.425Z,94.80
2023-02-24T06:51:31.884Z,94.90
2023-02-24T06:53:59.457Z,94.90
2023-02-24T06:56:27.609Z,95.00
2023-02-24T06:58:55.887Z,95.00
2023-02-24T07:01:28.745Z,95.00
2023-02-24T07:04:17.586Z,94.90
2023-02-24T07:06:52.224Z,94.90
2023-02-24T07:09:21.767Z,94.90
2023-02-24T07:11:52.037Z,94.90
2023-02-24T07:14:21.164Z,95.00
2023-02-24T07:16:53.957Z,95.00
2023-02-24T07:19:23.875Z,94.90
2023-02-24T07:21:52.548Z,94.90
2023-02-24T07:24:25.126Z,94.80
2023-02-24T07:26:57.124Z,94.70
2023-02-24T07:29:25.798Z,94.60
2023-02-24T07:31:56.538Z,94.50
2023-02-24T07:34:25.241Z,94.60
2023-02-24T07:36:52.984Z,94.80
2023-02-24T07:39:22.998Z,94.80
2023-02-24T07:41:51.814Z,94.80
2023-02-24T07:44:20.456Z,94.70
2023-02-24T07:46:49.033Z,94.70
2023-02-24T07:49:25.881Z,94.60
2023-02-24T07:51:55.217Z,94.60
2023-02-24T07:54:23.338Z,94.50
2023-02-24T07:56:56.711Z,94.20
2023-02-24T07:59:26.437Z,94.30
2023-02-24T08:01:55.962Z,94.10
2023-02-24T08:04:28.647Z,94.00
2023-02-24T08:06:58.883Z,94.00
2023-02-24T08:09:45.885Z,93.70
2023-02-24T08:12:21.173Z,93.60
2023-02-24T08:14:51.260Z,93.40
2023-02-24T08:17:23.613Z,93.20
2023-02-24T08:20:15.548Z,93.20
2023-02-24T08:22:46.543Z,93.10
2023-02-24T08:25:19.011Z,92.70
2023-02-24T08:28:06.704Z,92.60
2023-02-24T08:30:39.684Z,92.30
2023-02-24T08:33:09.305Z,92.40
2023-02-24T08:35:44.317Z,91.70
2023-02-24T08:38:14.930Z,91.40
2023-02-24T08:40:51.703Z,91.20
2023-02-24T08:43:33.023Z,91.00
2023-02-24T08:46:18.544Z,90.60
2023-02-24T08:48:49.670Z,90.60
2023-02-24T08:51:22.685Z,90.00
2023-02-24T08:53:54.926Z,90.00
2023-02-24T08:56:27.915Z,89.60
2023-02-24T08:59:05.128Z,89.20
2023-02-24T09:02:04.338Z,88.80
2023-02-24T09:04:34.251Z,88.70
2023-02-24T09:07:11.810Z,88.70
2023-02-24T09:09:42.160Z,88.20
2023-02-24T09:12:21.822Z,89.10
2023-02-24T09:15:07.446Z,89.30
2023-02-24T09:17:40.571Z,88.90
2023-02-24T09:20:25.587Z,88.50
2023-02-24T09:23:08.873Z,88.70
2023-02-24T09:25:41.604Z,88.50
2023-02-24T09:28:27.610Z,87.70
2023-02-24T09:30:58.443Z,87.90
2023-02-24T09:33:38.835Z,86.70
2023-02-24T09:36:20.248Z,86.80
2023-02-24T09:39:02.307Z,86.50
2023-02-24T09:41:32.728Z,85.90
2023-02-24T09:44:20.221Z,85.20
2023-02-24T09:47:08.719Z,86.00
2023-02-24T09:49:46.430Z,85.00
2023-02-24T09:52:16.972Z,84.40
2023-02-24T09:55:25.709Z,83.90
2023-02-24T09:58:17.871Z,85.60
2023-02-24T10:01:21.871Z,84.90
2023-02-24T10:04:18.355Z,84.30
2023-02-24T10:07:10.833Z,84.50
2023-02-24T10:09:43.375Z,84.40
2023-02-24T10:12:19.023Z,82.90
2023-02-24T10:15:32.266Z,83.80
2023-02-24T10:18:27.092Z,84.90
2023-02-24T10:21:19.351Z,84.20
2023-02-24T10:24:29.264Z,84.00
2023-02-24T10:27:08.489Z,83.10
2023-02-24T10:29:47.136Z,83.50
2023-02-24T10:32:47.040Z,84.00
2023-02-24T10:35:17.196Z,82.20
2023-02-24T10:37:44.864Z,82.00
2023-02-24T10:40:17.437Z,81.30
2023-02-24T10:42:48.773Z,80.30
2023-02-24T10:45:23.796Z,80.80
2023-02-24T10:47:59.587Z,80.80
2023-02-24T10:50:55.017Z,79.70
2023-02-24T10:53:34.595Z,79.80
2023-02-24T10:56:27.007Z,78.80
2023-02-24T10:59:22.835Z,77.50
2023-02-24T11:01:59.293Z,77.70
2023-02-24T11:05:04.118Z,80.40
2023-02-24T11:07:53.548Z,78.90
2023-02-24T11:10:32.565Z,79.00
2023-02-24T11:13:19.898Z,81.20
2023-02-24T11:16:29.098Z,80.30
2023-02-24T11:18:57.040Z,80.20
2023-02-24T11:21:26.879Z,80.10
2023-02-24T11:23:59.606Z,80.90
2023-02-24T11:26:33.652Z,80.70
2023-02-24T11:29:26.749Z,81.60
2023-02-24T11:32:14.885Z,81.10
2023-02-24T11:35:04.304Z,81.40
2023-02-24T11:37:38.995Z,82.90
2023-02-24T11:40:17.316Z,82.20
2023-02-24T11:43:28.130Z,80.30
2023-02-24T11:46:00.608Z,80.90
2023-02-24T11:48:32.122Z,79.90
2023-02-24T11:51:10.757Z,81.30
2023-02-24T11:53:51.452Z,81.30
2023-02-24T11:56:44.491Z,78.90
2023-02-24T11:59:27.329Z,80.00
2023-02-24T12:02:03.711Z,79.30
2023-02-24T12:04:46.399Z,79.20
2023-02-24T12:07:28.566Z,79.40
2023-02-24T12:10:17.167Z,80.20
2023-02-24T12:12:47.901Z,79.50
2023-02-24T12:15:30.869Z,79.80
2023-02-24T12:18:13.706Z,80.30
2023-02-24T12:20:50.593Z,79.20
2023-02-24T12:23:34.379Z,79.60
2023-02-24T12:26:21.722Z,78.60
2023-02-24T12:29:22.789Z,78.20
2023-02-24T12:32:11.125Z,78.90
2023-02-24T12:35:06.981Z,81.20
2023-02-24T12:37:52.480Z,79.80
2023-02-24T12:40:47.788Z,78.40
2023-02-24T12:43:45.140Z,78.50
2023-02-24T12:46:59.830Z,79.40
2023-02-24T12:49:42.632Z,80.00
2023-02-24T12:52:27.023Z,79.40
2023-02-24T12:55:05.885Z,80.00
2023-02-24T12:57:55.964Z,81.00
2023-02-24T13:00:41.815Z,79.40
2023-02-24T13:03:20.060Z,79.50
2023-02-24T13:06:14.946Z,79.10
2023-02-24T13:08:56.367Z,79.20
2023-02-24T13:11:41.925Z,80.60
2023-02-24T13:14:21.140Z,80.90
2023-02-24T13:16:48.190Z,80.10
2023-02-24T13:19:26.921Z,80.30
2023-02-24T13:22:19.385Z,80.00
2023-02-24T13:24:55.268Z,79.80
2023-02-24T13:27:29.028Z,79.70
2023-02-24T13:30:03.056Z,78.70
2023-02-24T13:32:35.748Z,80.00
2023-02-24T13:35:25.226Z,78.70
2023-02-24T13:37:53.734Z,79.00
2023-02-24T13:40:23.338Z,79.30
2023-02-24T13:42:56.294Z,77.40
2023-02-24T13:45:25.820Z,77.20
2023-02-24T13:48:09.580Z,76.30
2023-02-24T13:50:40.670Z,73.50
2023-02-24T13:53:33.742Z,71.80
2023-02-24T13:56:18.763Z,72.90
2023-02-24T13:58:55.329Z,72.20
2023-02-24T14:01:23.516Z,70.50
2023-02-24T14:04:14.896Z,69.40
2023-02-24T14:06:47.813Z,66.50
2023-02-24T14:09:18.455Z,69.20
2023-02-24T14:11:45.284Z,70.60
2023-02-24T14:14:18.302Z,69.40
2023-02-24T14:16:48.136Z,66.80
2023-02-24T14:19:17.276Z,67.70
2023-02-24T14:21:55.750Z,68.60
2023-02-24T14:24:23.551Z,70.50
2023-02-24T14:26:52.305Z,69.10
2023-02-24T14:29:22.676Z,72.30
2023-02-24T14:31:52.504Z,72.40
2023-02-24T14:34:22.711Z,74.90
2023-02-24T14:36:52.820Z,75.40
2023-02-24T14:39:25.401Z,74.70
2023-02-24T14:42:10.280Z,74.10
2023-02-24T14:44:48.312Z,74.50
2023-02-24T14:47:16.772Z,74.00
2023-02-24T14:50:02.837Z,74.50
2023-02-24T14:52:42.678Z,73.20
2023-02-24T14:55:31.926Z,75.10
2023-02-24T14:58:24.106Z,76.80
2023-02-24T15:00:58.749Z,76.40
2023-02-24T15:03:29.343Z,78.20
2023-02-24T15:06:04.733Z,78.70
2023-02-24T15:08:41.387Z,79.30
2023-02-24T15:11:17.546Z,78.10
2023-02-24T15:14:06.878Z,78.30
2023-02-24T15:16:37.343Z,79.10
2023-02-24T15:19:04.886Z,80.50
2023-02-24T15:21:40.538Z,79.70
2023-02-24T15:24:21.183Z,80.40
2023-02-24T15:26:56.943Z,80.50
2023-02-24T15:29:27.620Z,81.00
2023-02-24T15:31:56.593Z,80.70
2023-02-24T15:34:25.278Z,80.20
2023-02-24T15:36:55.681Z,80.40
2023-02-24T15:39:26.651Z,79.60
2023-02-24T15:42:21.318Z,79.20
2023-02-24T15:44:54.385Z,79.50
2023-02-24T15:47:25.678Z,79.20
2023-02-24T15:49:52.468Z,78.50
2023-02-24T15:52:24.047Z,78.20
2023-02-24T15:54:50.973Z,78.20
2023-02-24T15:57:18.556Z,77.90
2023-02-24T15:59:45.453Z,78.40
2023-02-24T16:02:20.792Z,78.00
2023-02-24T16:04:48.705Z,78.10
2023-02-24T16:07:25.598Z,78.50
2023-02-24T16:09:54.307Z,78.20
2023-02-24T16:12:29.306Z,78.60
2023-02-24T16:15:02.401Z,79.30
2023-02-24T16:17:34.221Z,79.20
2023-02-24T16:20:02.236Z,79.70
2023-02-24T16:22:29.538Z,79.90
2023-02-24T16:24:56.345Z,80.10
2023-02-24T16:27:23.798Z,79.60
2023-02-24T16:29:51.120Z,80.10
2023-02-24T16:32:18.074Z,80.70
2023-02-24T16:34:44.934Z,80.10
2023-02-24T16:37:27.591Z,80.70
2023-02-24T16:39:55.172Z,80.30
2023-02-24T16:42:22.260Z,80.30
2023-02-24T16:44:49.730Z,80.70
2023-02-24T16:47:20.521Z,80.70
2023-02-24T16:49:47.351Z,80.50
2023-02-24T16:52:18.907Z,81.10
2023-02-24T16:54:46.349Z,81.30
2023-02-24T16:57:13.093Z,81.80
2023-02-24T16:59:39.819Z,81.60
2023-02-24T17:02:06.836Z,81.30
2023-02-24T17:04:33.601Z,81.40
2023-02-24T17:07:01.403Z,77.10
2023-02-24T17:09:29.902Z,77.60
2023-02-24T17:11:57.134Z,77.40
2023-02-24T17:14:24.561Z,77.60
2023-02-24T17:16:51.859Z,76.70
2023-02-24T17:19:18.604Z,76.40
2023-02-24T17:21:45.858Z,76.30
2023-02-24T17:24:18.293Z,75.30
2023-02-24T17:26:45.464Z,74.90
2023-02-24T17:29:13.753Z,75.00
2023-02-24T17:31:42.265Z,76.20
2023-02-24T17:34:10.068Z,75.90
2023-02-24T17:36:36.803Z,75.80
2023-02-24T17:39:03.634Z,76.50
2023-02-24T17:41:30.480Z,76.30
2023-02-24T17:43:57.232Z,76.80
2023-02-24T17:46:24.339Z,77.20
2023-02-24T17:48:51.311Z,77.20
2023-02-24T17:51:19.541Z,76.30
2023-02-24T17:53:46.445Z,76.40
2023-02-24T17:56:13.239Z,75.90
2023-02-24T17:58:40.222Z,76.60
2023-02-24T18:01:07.859Z,75.80
2023-02-24T18:03:36.181Z,76.10
2023-02-24T18:06:05.877Z,76.90
2023-02-24T18:08:34.914Z,77.00
2023-02-24T18:11:02.088Z,77.30
2023-02-24T18:13:30.512Z,77.40
2023-02-24T18:15:57.351Z,77.20
2023-02-24T18:18:25.340Z,77.90
2023-02-24T18:20:52.325Z,77.80
2023-02-24T18:23:19.782Z,78.10
2023-02-24T18:25:46.518Z,78.10
2023-02-24T18:28:13.264Z,78.40
2023-02-24T18:30:40.116Z,78.40
2023-02-24T18:33:07.180Z,78.90
2023-02-24T18:35:34.061Z,78.90
2023-02-24T18:38:00.851Z,78.80
2023-02-24T18:40:28.608Z,79.10
2023-02-24T18:42:55.913Z,79.70
2023-02-24T18:45:23.833Z,79.90
2023-02-24T18:47:52.310Z,80.30
2023-02-24T18:50:20.551Z,79.60
2023-02-24T18:52:47.378Z,79.30
2023-02-24T18:55:14.142Z,79.40
2023-02-24T18:57:41.068Z,79.30
2023-02-24T19:00:08.598Z,79.30
2023-02-24T19:02:35.433Z,80.10
2023-02-24T19:05:02.727Z,79.70
2023-02-24T19:07:29.902Z,80.00
2023-02-24T19:09:56.745Z,80.50
2023-02-24T19:12:24.078Z,80.20
2023-02-24T19:14:52.434Z,80.20
2023-02-24T19:17:20.266Z,80.90
2023-02-24T19:19:47.039Z,80.90
2023-02-24T19:22:13.836Z,80.50
2023-02-24T19:24:40.627Z,80.40
2023-02-24T19:27:08.639Z,79.90
2023-02-24T19:29:35.444Z,80.60
2023-02-24T19:32:02.429Z,80.20
2023-02-24T19:34:29.332Z,80.00
2023-02-24T19:36:56.070Z,79.50
2023-02-24T19:39:22.903Z,80.00
2023-02-24T19:41:50.066Z,80.10
2023-02-24T19:44:16.996Z,79.90
2023-02-24T19:46:43.796Z,78.20
2023-02-24T19:49:10.665Z,79.00
2023-02-24T19:51:37.409Z,78.50
2023-02-24T19:54:06.117Z,77.90
2023-02-24T19:56:36.787Z,77.80
2023-02-24T19:59:06.400Z,78.90
2023-02-24T20:01:33.543Z,78.00
2023-02-24T20:04:02.029Z,77.40
2023-02-24T20:06:35.613Z,78.50
2023-02-24T20:09:06.299Z,78.00
2023-02-24T20:11:38.925Z,79.40
2023-02-24T20:14:07.466Z,75.80
2023-02-24T20:16:36.775Z,76.00
2023-02-24T20:19:05.923Z,75.70
2023-02-24T20:21:33.538Z,76.10
2023-02-24T20:24:01.661Z,76.60
2023-02-24T20:26:28.718Z,77.20
2023-02-24T20:28:56.463Z,75.90
2023-02-24T20:31:24.063Z,75.90
2023-02-24T20:33:51.165Z,76.90
2023-02-24T20:36:23.889Z,76.40
2023-02-24T20:38:51.574Z,76.40
2023-02-24T20:41:20.035Z,76.20
2023-02-24T20:43:47.687Z,76.50
2023-02-24T20:46:24.736Z,76.20
2023-02-24T20:48:54.684Z,76.60
2023-02-24T20:51:23.043Z,77.60
2023-02-24T20:53:57.423Z,77.40
2023-02-24T20:56:29.247Z,75.80
2023-02-24T20:59:02.066Z,75.20
2023-02-24T21:01:30.508Z,75.70
2023-02-24T21:03:57.847Z,75.40
2023-02-24T21:06:25.776Z,75.50
2023-02-24T21:08:55.483Z,76.40
2023-02-24T21:11:22.861Z,76.30
2023-02-24T21:13:51.064Z,76.70
2023-02-24T21:16:19.394Z,76.40
2023-02-24T21:18:47.635Z,78.30
2023-02-24T21:21:15.318Z,78.60
2023-02-24T21:23:43.452Z,79.80
2023-02-24T21:26:10.863Z,81.00
2023-02-24T21:28:38.524Z,81.80
2023-02-24T21:31:10.134Z,82.50
2023-02-24T21:33:37.701Z,83.60
2023-02-24T21:36:07.420Z,84.30
2023-02-24T21:38:37.414Z,84.70
2023-02-24T21:41:07.010Z,84.80
2023-02-24T21:43:33.973Z,84.50
2023-02-24T21:46:02.622Z,85.00
2023-02-24T21:48:29.485Z,85.50
2023-02-24T21:51:04.957Z,85.80
2023-02-24T21:53:35.738Z,86.20
2023-02-24T21:56:10.750Z,86.50
2023-02-24T21:58:39.079Z,86.80
2023-02-24T22:01:14.270Z,86.80
2023-02-24T22:03:41.341Z,86.90
2023-02-24T22:06:10.501Z,86.80
2023-02-24T22:08:37.825Z,86.60
2023-02-24T22:11:04.661Z,86.80
2023-02-24T22:13:31.448Z,86.80
2023-02-24T22:16:01.972Z,86.60
2023-02-24T22:18:29.202Z,86.60
2023-02-24T22:20:56.020Z,86.80
2023-02-24T22:23:22.874Z,86.00
2023-02-24T22:25:49.602Z,86.60
2023-02-24T22:28:16.436Z,86.40
2023-02-24T22:30:43.242Z,86.40
2023-02-24T22:33:10.024Z,86.10
2023-02-24T22:35:36.774Z,86.90
2023-02-24T22:38:03.526Z,86.00
2023-02-24T22:40:30.311Z,86.00
2023-02-24T22:42:57.050Z,86.20
2023-02-24T22:45:23.862Z,85.00
2023-02-24T22:47:50.640Z,85.70
2023-02-24T22:50:17.556Z,85.80
2023-02-24T22:52:44.282Z,85.70
2023-02-24T22:55:11.321Z,85.40
2023-02-24T22:57:38.262Z,84.90
2023-02-24T23:00:09.644Z,85.10
2023-02-24T23:02:37.108Z,85.70
2023-02-24T23:05:04.264Z,85.80
2023-02-24T23:07:31.074Z,85.90
2023-02-24T23:09:59.227Z,85.50
2023-02-24T23:12:26.367Z,85.50
2023-02-24T23:14:53.208Z,85.20
2023-02-24T23:17:21.402Z,85.60
2023-02-24T23:19:48.137Z,86.00
2023-02-24T23:22:15.231Z,85.90
2023-02-24T23:24:42.028Z,86.40
2023-02-24T23:27:09.805Z,86.20
2023-02-24T23:29:36.827Z,85.30
2023-02-24T23:32:03.796Z,85.40
2023-02-24T23:34:30.574Z,85.30
2023-02-24T23:36:57.340Z,85.90
2023-02-24T23:39:24.482Z,86.10
2023-02-24T23:41:56.684Z,86.30
2023-02-24T23:44:24.135Z,86.00
2023-02-24T23:46:50.948Z,86.30
2023-02-24T23:49:17.656Z,85.50
2023-02-24T23:51:48.999Z,85.80
2023-02-24T23:54:18.073Z,86.30
2023-02-24T23:56:45.173Z,86.10
2023-02-24T23:59:12.062Z,86.40
